sensor_id;sensor_type;location;lat;lon;timestamp;pressure;altitude;pressure_sealevel;temperature;humidity
49104;BME280;34915;52.926;11.116;2023-04-10T00:00:40;102530.19;;;5.42;100.00
49104;BME280;34915;52.926;11.116;2023-04-10T00:03:07;102524.91;;;5.42;100.00
49104;BME280;34915;52.926;11.116;2023-04-10T00:05:32;102531.81;;;5.46;100.00
49104;BME280;34915;52.926;11.116;2023-04-10T00:07:58;102533.56;;;5.47;100.00
49104;BME280;34915;52.926;11.116;2023-04-10T00:10:24;102522.97;;;5.50;100.00
49104;BME280;34915;52.926;11.116;2023-04-10T00:12:50;102524.66;;;5.54;100.00
49104;BME280;34915;52.926;11.116;2023-04-10T00:15:18;102527.41;;;5.48;100.00
49104;BME280;34915;52.926;11.116;2023-04-10T00:17:44;102531.81;;;5.46;100.00
49104;BME280;34915;52.926;11.116;2023-04-10T00:20:09;102522.16;;;5.48;100.00
49104;BME280;34915;52.926;11.116;2023-04-10T00:22:35;102526.56;;;5.46;100.00
49104;BME280;34915;52.926;11.116;2023-04-10T00:25:01;102526.63;;;5.43;100.00
49104;BME280;34915;52.926;11.116;2023-04-10T00:27:26;102517.94;;;5.41;100.00
49104;BME280;34915;52.926;11.116;2023-04-10T00:29:52;102517.94;;;5.41;100.00
49104;BME280;34915;52.926;11.116;2023-04-10T00:32:17;102511.00;;;5.37;100.00
49104;BME280;34915;52.926;11.116;2023-04-10T00:34:43;102504.03;;;5.36;100.00
49104;BME280;34915;52.926;11.116;2023-04-10T00:37:08;102500.63;;;5.31;100.00
49104;BME280;34915;52.926;11.116;2023-04-10T00:39:34;102511.00;;;5.37;100.00
49104;BME280;34915;52.926;11.116;2023-04-10T00:41:59;102507.63;;;5.32;100.00
49104;BME280;34915;52.926;11.116;2023-04-10T00:44:26;102506.75;;;5.32;100.00
49104;BME280;34915;52.926;11.116;2023-04-10T00:46:52;102506.84;;;5.27;100.00
49104;BME280;34915;52.926;11.116;2023-04-10T00:49:18;102507.75;;;5.26;100.00
49104;BME280;34915;52.926;11.116;2023-04-10T00:51:44;102502.56;;;5.23;100.00
49104;BME280;34915;52.926;11.116;2023-04-10T00:54:12;102502.63;;;5.20;100.00
49104;BME280;34915;52.926;11.116;2023-04-10T00:56:38;102514.97;;;5.15;100.00
49104;BME280;34915;52.926;11.116;2023-04-10T00:59:04;102515.97;;;5.11;100.00
49104;BME280;34915;52.926;11.116;2023-04-10T01:01:30;102512.56;;;5.05;100.00
49104;BME280;34915;52.926;11.116;2023-04-10T01:03:56;102511.72;;;5.04;100.00
49104;BME280;34915;52.926;11.116;2023-04-10T01:15:15;102507.44;;;4.99;100.00
49104;BME280;34915;52.926;11.116;2023-04-10T01:18:03;102516.28;;;4.95;100.00
49104;BME280;34915;52.926;11.116;2023-04-10T01:20:35;102504.97;;;4.91;100.00
49104;BME280;34915;52.926;11.116;2023-04-10T01:26:08;102500.59;;;4.92;100.00
49104;BME280;34915;52.926;11.116;2023-04-10T01:29:10;102506.84;;;4.87;100.00
49104;BME280;34915;52.926;11.116;2023-04-10T01:31:45;102510.41;;;4.83;100.00
49104;BME280;34915;52.926;11.116;2023-04-10T01:34:19;102505.28;;;4.77;100.00
49104;BME280;34915;52.926;11.116;2023-04-10T01:36:49;102508.78;;;4.76;100.00
49104;BME280;34915;52.926;11.116;2023-04-10T01:39:18;102506.19;;;4.74;100.00
49104;BME280;34915;52.926;11.116;2023-04-10T01:41:45;102510.59;;;4.74;100.00
49104;BME280;34915;52.926;11.116;2023-04-10T01:44:13;102508.03;;;4.71;100.00
49104;BME280;34915;52.926;11.116;2023-04-10T01:46:41;102514.28;;;4.64;100.00
49104;BME280;34915;52.926;11.116;2023-04-10T01:49:08;102516.25;;;4.51;100.00
49104;BME280;34915;52.926;11.116;2023-04-10T01:51:34;102519.88;;;4.46;100.00
49104;BME280;34915;52.926;11.116;2023-04-10T01:54:00;102521.63;;;4.44;100.00
49104;BME280;34915;52.926;11.116;2023-04-10T01:56:27;102515.50;;;4.45;100.00
49104;BME280;34915;52.926;11.116;2023-04-10T01:58:53;102514.69;;;4.43;100.00
49104;BME280;34915;52.926;11.116;2023-04-10T02:01:21;102509.44;;;4.40;100.00
49104;BME280;34915;52.926;11.116;2023-04-10T02:03:46;102516.56;;;4.35;100.00
49104;BME280;34915;52.926;11.116;2023-04-10T02:06:44;102515.84;;;4.27;100.00
49104;BME280;34915;52.926;11.116;2023-04-10T02:12:05;102518.84;;;4.03;100.00
49104;BME280;34915;52.926;11.116;2023-04-10T02:14:36;102513.75;;;3.94;100.00
49104;BME280;34915;52.926;11.116;2023-04-10T02:17:03;102515.59;;;3.90;100.00
49104;BME280;34915;52.926;11.116;2023-04-10T02:19:30;102512.94;;;3.91;100.00
49104;BME280;34915;52.926;11.116;2023-04-10T02:21:57;102499.75;;;3.95;100.00
49104;BME280;34915;52.926;11.116;2023-04-10T02:24:23;102497.13;;;3.97;100.00
49104;BME280;34915;52.926;11.116;2023-04-10T02:26:51;102496.22;;;3.96;100.00
49104;BME280;34915;52.926;11.116;2023-04-10T02:29:17;102494.47;;;3.98;100.00
49104;BME280;34915;52.926;11.116;2023-04-10T02:31:44;102490.97;;;3.99;100.00
49104;BME280;34915;52.926;11.116;2023-04-10T02:34:10;102497.97;;;3.97;100.00
49104;BME280;34915;52.926;11.116;2023-04-10T02:36:37;102498.84;;;3.96;100.00
49104;BME280;34915;52.926;11.116;2023-04-10T02:39:04;102506.75;;;3.93;100.00
49104;BME280;34915;52.926;11.116;2023-04-10T02:41:29;102501.56;;;3.90;100.00
49104;BME280;34915;52.926;11.116;2023-04-10T02:43:55;102501.56;;;3.90;100.00
49104;BME280;34915;52.926;11.116;2023-04-10T02:46:20;102499.91;;;3.87;100.00
49104;BME280;34915;52.926;11.116;2023-04-10T02:48:46;102498.16;;;3.86;100.00
49104;BME280;34915;52.926;11.116;2023-04-10T02:51:12;102489.53;;;3.81;100.00
49104;BME280;34915;52.926;11.116;2023-04-10T02:53:37;102493.03;;;3.80;100.00
49104;BME280;34915;52.926;11.116;2023-04-10T02:56:05;102491.34;;;3.76;100.00
49104;BME280;34915;52.926;11.116;2023-04-10T02:58:32;102492.16;;;3.79;100.00
49104;BME280;34915;52.926;11.116;2023-04-10T03:00:58;102484.41;;;3.72;100.00
49104;BME280;34915;52.926;11.116;2023-04-10T03:03:24;102475.75;;;3.67;100.00
49104;BME280;34915;52.926;11.116;2023-04-10T03:05:49;102472.31;;;3.65;100.00
49104;BME280;34915;52.926;11.116;2023-04-10T03:08:18;102474.97;;;3.62;100.00
49104;BME280;34915;52.926;11.116;2023-04-10T03:10:44;102465.41;;;3.58;100.00
49104;BME280;34915;52.926;11.116;2023-04-10T03:13:13;102463.69;;;3.57;100.00
49104;BME280;34915;52.926;11.116;2023-04-10T03:15:39;102467.25;;;3.53;100.00
49104;BME280;34915;52.926;11.116;2023-04-10T03:18:04;102458.53;;;3.51;100.00
49104;BME280;34915;52.926;11.116;2023-04-10T03:20:31;102451.56;;;3.50;100.00
49104;BME280;34915;52.926;11.116;2023-04-10T03:22:59;102458.63;;;3.45;100.00
49104;BME280;34915;52.926;11.116;2023-04-10T03:25:25;102458.69;;;3.42;100.00
49104;BME280;34915;52.926;11.116;2023-04-10T03:27:51;102457.91;;;3.36;100.00
49104;BME280;34915;52.926;11.116;2023-04-10T03:30:17;102450.03;;;3.37;100.00
49104;BME280;34915;52.926;11.116;2023-04-10T03:32:43;102451.78;;;3.35;100.00
49104;BME280;34915;52.926;11.116;2023-04-10T03:35:09;102450.03;;;3.37;100.00
49104;BME280;34915;52.926;11.116;2023-04-10T03:37:35;102446.59;;;3.32;100.00
49104;BME280;34915;52.926;11.116;2023-04-10T03:40:05;102437.94;;;3.27;100.00
49104;BME280;34915;52.926;11.116;2023-04-10T03:42:31;102437.13;;;3.24;100.00
49104;BME280;34915;52.926;11.116;2023-04-10T03:44:56;102433.72;;;3.19;100.00
49104;BME280;34915;52.926;11.116;2023-04-10T03:47:22;102427.63;;;3.18;100.00
49104;BME280;34915;52.926;11.116;2023-04-10T03:49:48;102432.00;;;3.16;100.00
49104;BME280;34915;52.926;11.116;2023-04-10T03:52:13;102427.72;;;3.12;100.00
49104;BME280;34915;52.926;11.116;2023-04-10T03:54:39;102423.34;;;3.11;100.00
49104;BME280;34915;52.926;11.116;2023-04-10T03:57:04;102413.75;;;3.10;100.00
49104;BME280;34915;52.926;11.116;2023-04-10T03:59:30;102418.09;;;3.13;100.00
49104;BME280;34915;52.926;11.116;2023-04-10T04:01:55;102412.88;;;3.11;100.00
49104;BME280;34915;52.926;11.116;2023-04-10T04:04:21;102416.38;;;3.10;100.00
49104;BME280;34915;52.926;11.116;2023-04-10T04:06:47;102415.53;;;3.08;100.00
49104;BME280;34915;52.926;11.116;2023-04-10T04:09:13;102410.25;;;3.11;100.00
49104;BME280;34915;52.926;11.116;2023-04-10T04:11:38;102410.94;;;3.22;100.00
49104;BME280;34915;52.926;11.116;2023-04-10T04:14:04;102417.03;;;3.26;100.00
49104;BME280;34915;52.926;11.116;2023-04-10T04:16:32;102421.34;;;3.27;100.00
49104;BME280;34915;52.926;11.116;2023-04-10T04:18:57;102422.25;;;3.27;100.00
49104;BME280;34915;52.926;11.116;2023-04-10T04:21:23;102413.56;;;3.22;100.00
49104;BME280;34915;52.926;11.116;2023-04-10T04:23:49;102415.31;;;3.23;100.00
49104;BME280;34915;52.926;11.116;2023-04-10T04:26:14;102410.91;;;3.25;100.00
49104;BME280;34915;52.926;11.116;2023-04-10T04:28:40;102417.09;;;3.21;100.00
49104;BME280;34915;52.926;11.116;2023-04-10T04:31:06;102417.16;;;3.18;100.00
49104;BME280;34915;52.926;11.116;2023-04-10T04:33:31;102419.88;;;3.11;100.00
49104;BME280;34915;52.926;11.116;2023-04-10T04:35:57;102422.56;;;3.03;100.00
49104;BME280;34915;52.926;11.116;2023-04-10T04:38:22;102420.91;;;2.99;100.00
49104;BME280;34915;52.926;11.116;2023-04-10T04:40:48;102413.13;;;2.95;100.00
49104;BME280;34915;52.926;11.116;2023-04-10T04:43:13;102420.94;;;2.96;100.00
49104;BME280;34915;52.926;11.116;2023-04-10T04:45:39;102415.66;;;2.99;100.00
49104;BME280;34915;52.926;11.116;2023-04-10T04:48:04;102422.63;;;3.00;100.00
49104;BME280;34915;52.926;11.116;2023-04-10T04:50:30;102413.88;;;3.01;100.00
49104;BME280;34915;52.926;11.116;2023-04-10T04:52:56;102424.31;;;3.04;100.00
49104;BME280;34915;52.926;11.116;2023-04-10T04:55:21;102425.16;;;3.06;100.00
49104;BME280;34915;52.926;11.116;2023-04-10T04:57:47;102431.25;;;3.08;100.00
49104;BME280;34915;52.926;11.116;2023-04-10T05:00:12;102424.25;;;3.07;100.00
49104;BME280;34915;52.926;11.116;2023-04-10T05:02:38;102420.81;;;3.05;100.00
49104;BME280;34915;52.926;11.116;2023-04-10T05:05:04;102419.91;;;3.06;100.00
49104;BME280;34915;52.926;11.116;2023-04-10T05:07:30;102419.91;;;3.06;100.00
49104;BME280;34915;52.926;11.116;2023-04-10T05:09:55;102424.25;;;3.07;100.00
49104;BME280;34915;52.926;11.116;2023-04-10T05:12:21;102423.34;;;3.11;100.00
49104;BME280;34915;52.926;11.116;2023-04-10T05:14:46;102415.53;;;3.08;100.00
49104;BME280;34915;52.926;11.116;2023-04-10T05:17:12;102418.91;;;3.16;100.00
49104;BME280;34915;52.926;11.116;2023-04-10T05:19:39;102406.63;;;3.21;100.00
49104;BME280;34915;52.926;11.116;2023-04-10T05:22:04;102425.66;;;3.32;100.00
49104;BME280;34915;52.926;11.116;2023-04-10T05:24:30;102420.31;;;3.38;100.00
49104;BME280;34915;52.926;11.116;2023-04-10T05:26:56;102414.13;;;3.43;100.00
49104;BME280;34915;52.926;11.116;2023-04-10T05:29:22;102418.41;;;3.49;100.00
49104;BME280;34915;52.926;11.116;2023-04-10T05:31:49;102413.13;;;3.52;100.00
49104;BME280;34915;52.926;11.116;2023-04-10T05:34:15;102409.63;;;3.53;100.00
49104;BME280;34915;52.926;11.116;2023-04-10T05:36:43;102416.53;;;3.57;100.00
49104;BME280;34915;52.926;11.116;2023-04-10T05:39:09;102418.31;;;3.55;100.00
49104;BME280;34915;52.926;11.116;2023-04-10T05:41:37;102419.97;;;3.62;100.00
49104;BME280;34915;52.926;11.116;2023-04-10T05:44:03;102426.81;;;3.69;100.00
49104;BME280;34915;52.926;11.116;2023-04-10T05:46:28;102431.97;;;3.75;100.00
49104;BME280;34915;52.926;11.116;2023-04-10T05:48:54;102431.81;;;3.84;100.00
49104;BME280;34915;52.926;11.116;2023-04-10T05:51:19;102427.44;;;3.84;100.00
49104;BME280;34915;52.926;11.116;2023-04-10T05:53:45;102424.69;;;3.91;100.00
49104;BME280;34915;52.926;11.116;2023-04-10T05:56:10;102429.66;;;4.06;100.00
49104;BME280;34915;52.926;11.116;2023-04-10T05:58:36;102425.91;;;4.19;100.00
49104;BME280;34915;52.926;11.116;2023-04-10T06:01:01;102426.56;;;4.32;100.00
49104;BME280;34915;52.926;11.116;2023-04-10T06:03:27;102429.84;;;4.42;100.00
49104;BME280;34915;52.926;11.116;2023-04-10T06:05:54;102427.00;;;4.53;100.00
49104;BME280;34915;52.926;11.116;2023-04-10T06:08:20;102425.06;;;4.64;100.00
49104;BME280;34915;52.926;11.116;2023-04-10T06:10:47;102417.75;;;4.78;100.00
49104;BME280;34915;52.926;11.116;2023-04-10T06:13:12;102410.47;;;4.91;100.00
49104;BME280;34915;52.926;11.116;2023-04-10T06:15:39;102420.50;;;5.12;100.00
49104;BME280;34915;52.926;11.116;2023-04-10T06:18:05;102411.31;;;5.31;100.00
49104;BME280;34915;52.926;11.116;2023-04-10T06:20:32;102412.75;;;5.44;100.00
49104;BME280;34915;52.926;11.116;2023-04-10T06:22:58;102409.81;;;5.56;100.00
49104;BME280;34915;52.926;11.116;2023-04-10T06:25:24;102412.16;;;5.68;100.00
49104;BME280;34915;52.926;11.116;2023-04-10T06:27:49;102406.66;;;5.80;100.00
49104;BME280;34915;52.926;11.116;2023-04-10T06:30:15;102406.34;;;5.91;100.00
49104;BME280;34915;52.926;11.116;2023-04-10T06:32:41;102406.03;;;6.03;100.00
49104;BME280;34915;52.926;11.116;2023-04-10T06:35:06;102400.50;;;6.12;100.00
49104;BME280;34915;52.926;11.116;2023-04-10T06:37:32;102396.75;;;6.22;100.00
49104;BME280;34915;52.926;11.116;2023-04-10T06:42:30;102403.16;;;6.44;100.00
49104;BME280;34915;52.926;11.116;2023-04-10T06:44:56;102405.72;;;6.45;100.00
49104;BME280;34915;52.926;11.116;2023-04-10T06:47:22;102392.28;;;6.56;100.00
49104;BME280;34915;52.926;11.116;2023-04-10T06:49:47;102398.75;;;6.75;100.00
49104;BME280;34915;52.926;11.116;2023-04-10T06:52:13;102393.09;;;6.86;100.00
49104;BME280;34915;52.926;11.116;2023-04-10T06:54:38;102382.19;;;6.98;100.00
49104;BME280;34915;52.926;11.116;2023-04-10T06:57:04;102383.38;;;7.17;100.00
49104;BME280;34915;52.926;11.116;2023-04-10T06:59:30;102374.97;;;7.34;100.00
49104;BME280;34915;52.926;11.116;2023-04-10T07:01:58;102374.84;;;7.36;100.00
49104;BME280;34915;52.926;11.116;2023-04-10T07:04:23;102375.09;;;7.55;100.00
49104;BME280;34915;52.926;11.116;2023-04-10T07:06:49;102368.38;;;7.72;100.00
49104;BME280;34915;52.926;11.116;2023-04-10T07:09:14;102374.13;;;7.84;100.00
49104;BME280;34915;52.926;11.116;2023-04-10T07:11:40;102365.63;;;8.01;100.00
49104;BME280;34915;52.926;11.116;2023-04-10T07:14:05;102366.16;;;8.10;100.00
49104;BME280;34915;52.926;11.116;2023-04-10T07:16:31;102360.38;;;8.25;100.00
49104;BME280;34915;52.926;11.116;2023-04-10T07:18:57;102356.38;;;8.38;100.00
49104;BME280;34915;52.926;11.116;2023-04-10T07:21:22;102350.78;;;8.47;100.00
49104;BME280;34915;52.926;11.116;2023-04-10T07:23:48;102348.34;;;8.64;100.00
49104;BME280;34915;52.926;11.116;2023-04-10T07:26:13;102347.88;;;8.76;100.00
49104;BME280;34915;52.926;11.116;2023-04-10T07:28:39;102338.56;;;8.88;100.00
49104;BME280;34915;52.926;11.116;2023-04-10T07:31:05;102330.75;;;9.08;100.00
49104;BME280;34915;52.926;11.116;2023-04-10T07:33:32;102331.41;;;9.34;100.00
49104;BME280;34915;52.926;11.116;2023-04-10T07:35:57;102324.50;;;9.52;97.91
49104;BME280;34915;52.926;11.116;2023-04-10T07:38:23;102321.09;;;9.70;99.66
49104;BME280;34915;52.926;11.116;2023-04-10T07:40:55;102323.75;;;9.89;98.70
49104;BME280;34915;52.926;11.116;2023-04-10T07:43:20;102326.44;;;10.09;95.78
49104;BME280;34915;52.926;11.116;2023-04-10T07:45:46;102311.59;;;10.25;97.59
49104;BME280;34915;52.926;11.116;2023-04-10T07:48:11;102312.63;;;10.41;92.16
49104;BME280;34915;52.926;11.116;2023-04-10T07:50:37;102302.19;;;10.56;94.78
49104;BME280;34915;52.926;11.116;2023-04-10T07:53:03;102300.63;;;10.71;91.21
49104;BME280;34915;52.926;11.116;2023-04-10T07:55:42;102296.47;;;10.83;89.78
49104;BME280;34915;52.926;11.116;2023-04-10T07:58:09;102297.88;;;10.90;87.98
49104;BME280;34915;52.926;11.116;2023-04-10T08:00:35;102297.59;;;10.96;86.86
49104;BME280;34915;52.926;11.116;2023-04-10T08:03:00;102294.22;;;11.11;88.01
49104;BME280;34915;52.926;11.116;2023-04-10T08:05:26;102298.56;;;11.12;85.36
49104;BME280;34915;52.926;11.116;2023-04-10T08:07:52;102297.34;;;11.19;86.37
49104;BME280;34915;52.926;11.116;2023-04-10T08:10:18;102301.75;;;11.20;85.80
49104;BME280;34915;52.926;11.116;2023-04-10T08:12:44;102293.31;;;11.29;83.22
49104;BME280;34915;52.926;11.116;2023-04-10T08:15:09;102295.06;;;11.47;81.23
49104;BME280;34915;52.926;11.116;2023-04-10T08:17:35;102283.53;;;11.65;79.85
49104;BME280;34915;52.926;11.116;2023-04-10T08:20:01;102282.47;;;11.85;80.32
49104;BME280;34915;52.926;11.116;2023-04-10T08:22:26;102288.38;;;12.07;77.60
49104;BME280;34915;52.926;11.116;2023-04-10T08:24:52;102288.25;;;12.26;76.86
49104;BME280;34915;52.926;11.116;2023-04-10T08:27:17;102275.44;;;12.49;74.66
49104;BME280;34915;52.926;11.116;2023-04-10T08:29:43;102277.88;;;12.69;70.72
49104;BME280;34915;52.926;11.116;2023-04-10T08:32:09;102276.97;;;12.70;68.84
49104;BME280;34915;52.926;11.116;2023-04-10T08:34:34;102278.78;;;12.84;71.51
49104;BME280;34915;52.926;11.116;2023-04-10T08:37:04;102277.09;;;12.99;70.96
49104;BME280;34915;52.926;11.116;2023-04-10T08:39:30;102266.75;;;13.08;67.05
49104;BME280;34915;52.926;11.116;2023-04-10T08:41:55;102269.34;;;13.25;71.80
49104;BME280;34915;52.926;11.116;2023-04-10T08:44:21;102265.88;;;13.38;68.41
49104;BME280;34915;52.926;11.116;2023-04-10T08:46:47;102259.81;;;13.50;65.18
49104;BME280;34915;52.926;11.116;2023-04-10T08:49:24;102261.84;;;13.61;63.03
49104;BME280;34915;52.926;11.116;2023-04-10T08:51:57;102253.34;;;13.70;64.59
49104;BME280;34915;52.926;11.116;2023-04-10T08:54:32;102249.84;;;13.97;65.68
49104;BME280;34915;52.926;11.116;2023-04-10T08:56:59;102249.94;;;13.95;62.69
49104;BME280;34915;52.926;11.116;2023-04-10T08:59:29;102252.75;;;14.08;62.53
49104;BME280;34915;52.926;11.116;2023-04-10T09:01:57;102237.72;;;14.21;67.77
49104;BME280;34915;52.926;11.116;2023-04-10T09:04:24;102243.16;;;14.33;69.19
49104;BME280;34915;52.926;11.116;2023-04-10T09:06:51;102246.56;;;14.63;66.91
49104;BME280;34915;52.926;11.116;2023-04-10T09:09:17;102240.34;;;14.62;61.08
49104;BME280;34915;52.926;11.116;2023-04-10T09:14:24;102236.34;;;14.69;61.22
49104;BME280;34915;52.926;11.116;2023-04-10T09:16:51;102229.97;;;14.72;60.36
49104;BME280;34915;52.926;11.116;2023-04-10T09:19:32;102228.16;;;14.98;60.67
49104;BME280;34915;52.926;11.116;2023-04-10T09:21:58;102221.44;;;15.19;60.30
49104;BME280;34915;52.926;11.116;2023-04-10T09:24:24;102205.78;;;15.27;57.38
49104;BME280;34915;52.926;11.116;2023-04-10T09:26:50;102211.03;;;15.28;56.52
49104;BME280;34915;52.926;11.116;2023-04-10T09:29:16;102197.16;;;15.36;57.63
49104;BME280;34915;52.926;11.116;2023-04-10T09:31:42;102199.34;;;15.56;58.36
49104;BME280;34915;52.926;11.116;2023-04-10T09:34:18;102189.50;;;15.81;58.62
49104;BME280;34915;52.926;11.116;2023-04-10T09:39:17;102177.31;;;15.65;56.08
49104;BME280;34915;52.926;11.116;2023-04-10T09:41:51;102177.34;;;15.89;57.00
49104;BME280;34915;52.926;11.116;2023-04-10T09:44:26;102169.00;;;15.94;54.28
49104;BME280;34915;52.926;11.116;2023-04-10T09:46:53;102166.00;;;15.98;54.42
49104;BME280;34915;52.926;11.116;2023-04-10T09:49:19;102164.06;;;16.00;53.23
49104;BME280;34915;52.926;11.116;2023-04-10T09:51:45;102158.19;;;15.95;53.80
49104;BME280;34915;52.926;11.116;2023-04-10T09:54:11;102165.13;;;16.10;51.65
49104;BME280;34915;52.926;11.116;2023-04-10T09:56:38;102149.72;;;16.01;52.22
49104;BME280;34915;52.926;11.116;2023-04-10T09:59:06;102151.63;;;16.12;52.53
49104;BME280;34915;52.926;11.116;2023-04-10T10:01:32;102154.44;;;16.10;50.94
49104;BME280;34915;52.926;11.116;2023-04-10T10:04:02;102149.19;;;16.21;51.42
49104;BME280;34915;52.926;11.116;2023-04-10T10:06:32;102138.59;;;16.20;53.61
49104;BME280;34915;52.926;11.116;2023-04-10T10:09:02;102137.09;;;16.28;52.45
49104;BME280;34915;52.926;11.116;2023-04-10T10:11:32;102134.09;;;16.20;51.75
49104;BME280;34915;52.926;11.116;2023-04-10T10:14:04;102135.63;;;16.24;51.66
49104;BME280;34915;52.926;11.116;2023-04-10T10:21:46;102112.19;;;16.51;49.93
49104;BME280;34915;52.926;11.116;2023-04-10T10:24:12;102113.16;;;16.73;49.44
49104;BME280;34915;52.926;11.116;2023-04-10T10:26:39;102101.91;;;16.80;50.68
49104;BME280;34915;52.926;11.116;2023-04-10T10:29:08;102096.81;;;16.88;49.16
49104;BME280;34915;52.926;11.116;2023-04-10T10:31:38;102088.50;;;17.04;47.80
49104;BME280;34915;52.926;11.116;2023-04-10T10:34:05;102075.94;;;17.04;48.26
49104;BME280;34915;52.926;11.116;2023-04-10T10:36:34;102085.19;;;17.00;47.34
49104;BME280;34915;52.926;11.116;2023-04-10T10:39:25;102073.38;;;17.03;44.29
49104;BME280;34915;52.926;11.116;2023-04-10T10:42:01;102066.84;;;17.18;45.40
49104;BME280;34915;52.926;11.116;2023-04-10T10:44:33;102064.22;;;16.94;42.51
49104;BME280;34915;52.926;11.116;2023-04-10T10:47:18;102064.94;;;16.85;44.29
49104;BME280;34915;52.926;11.116;2023-04-10T10:52:56;102047.22;;;17.06;44.89
49104;BME280;34915;52.926;11.116;2023-04-10T10:57:52;102039.22;;;17.17;42.87
49104;BME280;34915;52.926;11.116;2023-04-10T11:00:22;102028.47;;;17.06;43.26
49104;BME280;34915;52.926;11.116;2023-04-10T11:05:57;102019.72;;;17.15;45.43
49104;BME280;34915;52.926;11.116;2023-04-10T11:11:06;102008.09;;;17.27;42.29
49104;BME280;34915;52.926;11.116;2023-04-10T11:13:37;101992.69;;;17.18;42.19
49104;BME280;34915;52.926;11.116;2023-04-10T11:16:05;101993.22;;;17.34;42.78
49104;BME280;34915;52.926;11.116;2023-04-10T11:21:12;101972.53;;;17.25;41.65
49104;BME280;34915;52.926;11.116;2023-04-10T11:31:40;101960.56;;;17.62;42.49
49104;BME280;34915;52.926;11.116;2023-04-10T11:34:07;101950.59;;;17.53;41.92
49104;BME280;34915;52.926;11.116;2023-04-10T11:36:36;101951.31;;;17.66;42.42
49104;BME280;34915;52.926;11.116;2023-04-10T11:39:07;101949.72;;;17.74;43.79
49104;BME280;34915;52.926;11.116;2023-04-10T11:41:34;101955.09;;;17.74;45.36
49104;BME280;34915;52.926;11.116;2023-04-10T11:44:03;101942.28;;;17.88;43.83
49104;BME280;34915;52.926;11.116;2023-04-10T11:46:30;101937.91;;;17.77;45.78
49104;BME280;34915;52.926;11.116;2023-04-10T11:48:58;101944.00;;;17.78;46.29
49104;BME280;34915;52.926;11.116;2023-04-10T11:51:25;101938.56;;;18.00;43.59
49104;BME280;34915;52.926;11.116;2023-04-10T11:56:38;101928.94;;;18.40;44.51
49104;BME280;34915;52.926;11.116;2023-04-10T11:59:05;101920.44;;;18.35;45.49
49104;BME280;34915;52.926;11.116;2023-04-10T12:01:39;101918.72;;;18.34;43.50
49104;BME280;34915;52.926;11.116;2023-04-10T12:04:17;101905.25;;;18.45;46.43
49104;BME280;34915;52.926;11.116;2023-04-10T12:06:51;101899.41;;;18.40;44.21
49104;BME280;34915;52.926;11.116;2023-04-10T12:09:20;101879.91;;;18.18;44.47
49104;BME280;34915;52.926;11.116;2023-04-10T12:11:55;101889.28;;;18.23;43.48
49104;BME280;34915;52.926;11.116;2023-04-10T12:14:22;101890.94;;;18.24;45.88
49104;BME280;34915;52.926;11.116;2023-04-10T12:16:49;101882.06;;;18.44;43.38
49104;BME280;34915;52.926;11.116;2023-04-10T12:19:16;101879.34;;;18.55;45.69
49104;BME280;34915;52.926;11.116;2023-04-10T12:21:43;101871.47;;;18.63;45.23
49104;BME280;34915;52.926;11.116;2023-04-10T12:24:10;101866.09;;;18.63;42.00
49104;BME280;34915;52.926;11.116;2023-04-10T12:26:36;101872.56;;;18.60;42.98
49104;BME280;34915;52.926;11.116;2023-04-10T12:29:02;101870.56;;;18.53;42.57
49104;BME280;34915;52.926;11.116;2023-04-10T12:31:35;101861.00;;;18.60;44.17
49104;BME280;34915;52.926;11.116;2023-04-10T12:34:02;101854.81;;;18.69;43.49
49104;BME280;34915;52.926;11.116;2023-04-10T12:36:28;101849.41;;;18.89;43.78
49104;BME280;34915;52.926;11.116;2023-04-10T12:38:56;101851.97;;;18.61;44.06
49104;BME280;34915;52.926;11.116;2023-04-10T12:41:23;101854.97;;;18.47;45.36
49104;BME280;34915;52.926;11.116;2023-04-10T12:43:50;101839.66;;;18.38;43.21
49104;BME280;34915;52.926;11.116;2023-04-10T12:46:27;101851.59;;;18.45;43.14
49104;BME280;34915;52.926;11.116;2023-04-10T12:48:54;101841.69;;;18.45;43.91
49104;BME280;34915;52.926;11.116;2023-04-10T12:54:08;101824.66;;;18.56;43.92
49104;BME280;34915;52.926;11.116;2023-04-10T12:56:43;101807.03;;;18.63;44.07
49104;BME280;34915;52.926;11.116;2023-04-10T12:59:10;101817.41;;;18.47;43.94
49104;BME280;34915;52.926;11.116;2023-04-10T13:01:38;101813.56;;;18.70;43.90
49104;BME280;34915;52.926;11.116;2023-04-10T13:04:05;101806.81;;;18.75;44.13
49104;BME280;34915;52.926;11.116;2023-04-10T13:06:30;101807.56;;;18.57;42.88
49104;BME280;34915;52.926;11.116;2023-04-10T13:08:56;101807.88;;;18.63;45.18
49104;BME280;34915;52.926;11.116;2023-04-10T13:11:22;101788.56;;;18.49;44.68
49104;BME280;34915;52.926;11.116;2023-04-10T13:13:48;101780.88;;;18.94;43.97
49104;BME280;34915;52.926;11.116;2023-04-10T13:16:16;101789.16;;;19.88;42.13
49104;BME280;34915;52.926;11.116;2023-04-10T13:18:42;101779.00;;;20.47;40.22
49104;BME280;34915;52.926;11.116;2023-04-10T13:21:07;101779.41;;;20.52;39.61
49104;BME280;34915;52.926;11.116;2023-04-10T13:23:33;101773.41;;;20.12;39.52
49104;BME280;34915;52.926;11.116;2023-04-10T13:25:58;101763.22;;;20.06;41.18
49104;BME280;34915;52.926;11.116;2023-04-10T13:28:26;101761.97;;;20.10;39.72
49104;BME280;34915;52.926;11.116;2023-04-10T13:30:51;101760.97;;;19.92;40.86
49104;BME280;34915;52.926;11.116;2023-04-10T13:33:17;101754.19;;;19.88;40.02
49104;BME280;34915;52.926;11.116;2023-04-10T13:35:43;101746.78;;;20.09;41.28